Seagoville's Hourly Summary for Thursday, May 10, 2018
Hour Temp
(f)
RH
(%)
Solar Rad.
(MJ/m2)
Rainfall
(in)
Wind
(mph)
5/10/2018 12:00 AM 72 55 0 0 7.33
5/10/2018 1:00 AM 71 55 0 0 7.02
5/10/2018 2:00 AM 69 56 0 0 7.44
5/10/2018 3:00 AM 67 62 0 0 6.88
5/10/2018 4:00 AM 65 67 0 0 6.39
5/10/2018 5:00 AM 63 72 0 0 5.49
5/10/2018 6:00 AM 60 82 0.02 0 2.27
5/10/2018 7:00 AM 62 82 0.44 0 2.81
5/10/2018 8:00 AM 67 81 1.13 0 8.33
5/10/2018 9:00 AM 71 69 1.81 0 8.58
5/10/2018 10:00 AM 74 57 2.37 0 8.29
5/10/2018 11:00 AM 77 54 2.7 0 7.38
5/10/2018 12:00 PM 78 48 2.81 0 10.35
5/10/2018 1:00 PM 80 43 2.79 0 11.47
5/10/2018 2:00 PM 81 41 2.66 0 10.36
5/10/2018 3:00 PM 82 41 2.4 0 10.78
5/10/2018 4:00 PM 82 42 1.81 0 9.33
5/10/2018 5:00 PM 82 44 1.3 0 8.85
5/10/2018 6:00 PM 82 44 0.91 0 9.72
5/10/2018 7:00 PM 80 44 0.28 0 7.14
5/10/2018 8:00 PM 76 52 0.01 0 4.68
5/10/2018 9:00 PM 73 60 0 0 3.62
5/10/2018 10:00 PM 73 59 0 0 6.16
5/10/2018 11:00 PM 74 60 0 0 7.83
Data Summary 73 57 23.44 0.00 7.44